Terminal Aerodrome Forecast
Issued by NWS Wilmington, OH

Home | Current Version | Previous Version | Text Only | Print | Product List | Glossary On
Versions: 1 2 3 4 5 6 7 8 9 10 11 12 13 14 15 16 17 18 19 20 21
036
FTUS41 KILN 311526 AAA
TAFCMH
TAF AMD
KCMH 311526Z 3115/0112 VRB03KT P6SM BKN200
     FM311800 30008KT P6SM VCTS BKN050CB
      TEMPO 3118/3122 5SM -TSRA BR OVC040CB
     FM312200 36008KT P6SM BKN100
     FM010500 01006KT P6SM SKC=

USA.gov is the U.S. government's official web portal to all federal, state and local government web resources and services.